Cedarville, OH (45314)

3:23 PM EST on December 06, 2016 (GMT -0500)
SPCLA | | Change Station

Elev 1033 ft 39.71 °N, 83.85 °W | Updated 11 minutes ago

Overcast
Overcast
40.8 °F
Feels Like 41 °F
N
1.0
Wind Variable Wind from West
Gusts 2.0 mph

Today
High -- | Low -- °F
--% Chance of Precip.
Yesterday
High -- | Low -- °F
Precip. -- in
Pressure 29.69 in
Visibility 10.0 miles
Clouds Mostly Cloudy 500 ft
Overcast 1300 ft
Windchill 41 °F
Dew Point 39 °F
Humidity 92%
Rainfall 0.60 in
Snow Depth Not available.
7:42 AM 5:10 PM
Waxing Crescent, 44% visible
METAR KSGH 061956Z AUTO 28006KT 10SM BKN005 OVC013 05/04 A2966 RMK AO2 RAE37 CIG 004V008 SLP054 P0000 T00500044
Pressure 29.69 in
Visibility 10.0 miles
Clouds Mostly Cloudy 500 ft
Overcast 1300 ft
Windchill 41 °F
Dew Point 39 °F
Humidity 92%
Rainfall 0.60 in
Snow Depth Not available.
7:42 AM 5:10 PM
Waxing Crescent, 44% visible
METAR KSGH 061956Z AUTO 28006KT 10SM BKN005 OVC013 05/04 A2966 RMK AO2 RAE37 CIG 004V008 SLP054 P0000 T00500044

10-Day Weather Forecast

Almanac

Astronomy

Dec. 06, 2016 Rise Set
Actual Time
Civil Twilight
Nautical Twilight
Astronomical Twilight
Moon
Length of Visible Light
Length of Day
Tomorrow will be .
, % of the Moon is Illuminated

Today's Extremes

State Highs State Lows

Community

WunderPhotos

Upload Photos

1,956,022 photos uploaded!

WunderBlog® & News

Nearby

Air Quality

  Air Quality AQ Index Pollutant
Not available.

Snow Depth

Station Depth Elevation

Earthquake Activity

City Distance Mag. Time & Date
Minimum magnitude displayed is 2.5.

Coastal Water Temperatures

Place Temperature

Stations

Nearby Weather Stations

Station Location Temp. Windchill Dew Point Humidity Wind Precip. Elev Updated Type
                   

Watches & Warnings

There are currently no watches in effect.